Česky Dansk Deutsch English Español Suomi Français Magyar Italiano Nederlands norsk Polski Português svenska Türkçe

 

Het Weer

Pocos De Caldas (Brazilië)

10:30, 17 August 2016 (GMT)

NWNNE
WE
SWSSE
Home            
Pocos De Caldas Pirassununga Sao Carlos Campinas Aeroporto Leite Lopes / Ribeir Sao Jose Dos Campo Guaratingueta Guarulhos Civ / Mil Marte Civ / Mil Sao Paulo/Congonhas Aeroporto Resende Santos Aeroporto Bauru Uberaba Barbacena Rio De Janeiro-Santa Cruz Ab Juiz De Fora Belo Horizonte Afonsos Aeroporto Belo Horizonte Aeroporto Rio / Jacarepagua Galeao Rio De Janeiro Aeroporto

Om een weerknop op uw website of weblog te plaatsen, copieer onderstaande code en plak die in uw pagina. In het eerste vakje staat HTML-code, in het tweede vakje UBB-code.


Add to Google

Details

Wind speed:1 bf, 1 kn, 0.5 m/s, 1.2 miles/h, 1.9 km/h
Wind direction:N, 360°
Sichtweite:Weiter als 10000 m, 10 km, 32800 ft, 6.2 miles
Clouds:CAVOC
Temperatur:11°C, 52°F
Taupunkt:11°C, 52°F
Luftdruck:1021 hPa, 765.8 mmHg, 30.15 inHg, 1.008 atm
Relative Luftfeuchtigkeit:100.0 %
METAR:SBPC 171030Z 36001KT CAVOK 11/11 Q1021

Snelkoppelingen

Actuele weersinformatie van de hele wereld. Voeg locaties toe met het plus (+) symbool. Deze snelkoppelingen kunnen worden toegevoegd aan Google.

Lid van de Technetium groep

website free tracking
StatCounter NetStat W3C Validator

29-11-2020 12:17:12
astro.technetium.be money.technetium.be phote.technetium.be tafeltennistafel.technetium.be www.ligfiets.net